<?xml version="1.0" encoding="UTF-8" standalone="no" ?>
<gpx xmlns="http://www.topografix.com/GPX/1/1" xmlns:xsi="http://www.w3.org/2001/XMLSchema-instance" xsi:schemaLocation="http://www.topografix.com/GPX/1/1 http://www.topografix.com/GPX/1/1/gpx.xsd" version="1.1" creator="VisuGPX - https://www.visugpx.com">
  <metadata>
    <name>Pont d\'Espagne - Lac de Gaube</name>
    <desc><![CDATA[Au départ du parking du Pont d\'Espagne]]></desc>
  </metadata>
  <trk>
    <name><![CDATA[ACTIVE LOG115514]]></name>
    <trkseg>
      <trkpt lat="42.85257" lon="-0.13399">
        <ele>1452.965</ele>
        <time>2011-07-17T11:55:13Z</time>
      </trkpt>
      <trkpt lat="42.85242" lon="-0.13411">
        <ele>1454.373</ele>
        <time>2011-07-17T11:55:28Z</time>
      </trkpt>
      <trkpt lat="42.85234" lon="-0.13443">
        <ele>1452.995</ele>
        <time>2011-07-17T11:55:46Z</time>
      </trkpt>
      <trkpt lat="42.85222" lon="-0.13477">
        <ele>1454.157</ele>
        <time>2011-07-17T11:56:09Z</time>
      </trkpt>
      <trkpt lat="42.85218" lon="-0.13497">
        <ele>1454.862</ele>
        <time>2011-07-17T11:56:25Z</time>
      </trkpt>
      <trkpt lat="42.85202" lon="-0.13539">
        <ele>1455.228</ele>
        <time>2011-07-17T11:56:52Z</time>
      </trkpt>
      <trkpt lat="42.85191" lon="-0.13579">
        <ele>1456.87</ele>
        <time>2011-07-17T11:57:16Z</time>
      </trkpt>
      <trkpt lat="42.85189" lon="-0.13604">
        <ele>1457.038</ele>
        <time>2011-07-17T11:57:34Z</time>
      </trkpt>
      <trkpt lat="42.85184" lon="-0.13646">
        <ele>1458.252</ele>
        <time>2011-07-17T11:58:00Z</time>
      </trkpt>
      <trkpt lat="42.85173" lon="-0.13676">
        <ele>1460.453</ele>
        <time>2011-07-17T11:58:21Z</time>
      </trkpt>
      <trkpt lat="42.85169" lon="-0.13691">
        <ele>1461.933</ele>
        <time>2011-07-17T11:58:33Z</time>
      </trkpt>
      <trkpt lat="42.85164" lon="-0.13694">
        <ele>1461.798</ele>
        <time>2011-07-17T11:58:47Z</time>
      </trkpt>
      <trkpt lat="42.85162" lon="-0.13702">
        <ele>1461.965</ele>
        <time>2011-07-17T11:58:54Z</time>
      </trkpt>
      <trkpt lat="42.8516" lon="-0.13705">
        <ele>1462.123</ele>
        <time>2011-07-17T11:58:56Z</time>
      </trkpt>
      <trkpt lat="42.8516" lon="-0.13711">
        <ele>1462.716</ele>
        <time>2011-07-17T11:59:00Z</time>
      </trkpt>
      <trkpt lat="42.85158" lon="-0.13716">
        <ele>1462.837</ele>
        <time>2011-07-17T11:59:04Z</time>
      </trkpt>
      <trkpt lat="42.85152" lon="-0.13735">
        <ele>1464.349</ele>
        <time>2011-07-17T11:59:21Z</time>
      </trkpt>
      <trkpt lat="42.85151" lon="-0.13737">
        <ele>1464.133</ele>
        <time>2011-07-17T11:59:38Z</time>
      </trkpt>
      <trkpt lat="42.85146" lon="-0.13754">
        <ele>1465.097</ele>
        <time>2011-07-17T11:59:52Z</time>
      </trkpt>
      <trkpt lat="42.85137" lon="-0.13788">
        <ele>1466.82</ele>
        <time>2011-07-17T12:00:16Z</time>
      </trkpt>
      <trkpt lat="42.85135" lon="-0.13814">
        <ele>1468.763</ele>
        <time>2011-07-17T12:00:33Z</time>
      </trkpt>
      <trkpt lat="42.85133" lon="-0.13826">
        <ele>1469.942</ele>
        <time>2011-07-17T12:00:41Z</time>
      </trkpt>
      <trkpt lat="42.85121" lon="-0.13847">
        <ele>1472.215</ele>
        <time>2011-07-17T12:00:59Z</time>
      </trkpt>
      <trkpt lat="42.8511" lon="-0.13854">
        <ele>1473.405</ele>
        <time>2011-07-17T12:01:13Z</time>
      </trkpt>
      <trkpt lat="42.8511" lon="-0.1386">
        <ele>1474.209</ele>
        <time>2011-07-17T12:01:17Z</time>
      </trkpt>
      <trkpt lat="42.85108" lon="-0.13874">
        <ele>1475.948</ele>
        <time>2011-07-17T12:01:28Z</time>
      </trkpt>
      <trkpt lat="42.85105" lon="-0.13885">
        <ele>1476.984</ele>
        <time>2011-07-17T12:01:35Z</time>
      </trkpt>
      <trkpt lat="42.851" lon="-0.13904">
        <ele>1479.156</ele>
        <time>2011-07-17T12:01:49Z</time>
      </trkpt>
      <trkpt lat="42.85103" lon="-0.13921">
        <ele>1479.641</ele>
        <time>2011-07-17T12:02:06Z</time>
      </trkpt>
      <trkpt lat="42.85109" lon="-0.13932">
        <ele>1480.546</ele>
        <time>2011-07-17T12:02:39Z</time>
      </trkpt>
      <trkpt lat="42.85112" lon="-0.13935">
        <ele>1480.886</ele>
        <time>2011-07-17T12:03:00Z</time>
      </trkpt>
      <trkpt lat="42.85115" lon="-0.13935">
        <ele>1480.552</ele>
        <time>2011-07-17T12:03:49Z</time>
      </trkpt>
      <trkpt lat="42.85112" lon="-0.13941">
        <ele>1480.802</ele>
        <time>2011-07-17T12:03:54Z</time>
      </trkpt>
      <trkpt lat="42.85111" lon="-0.13944">
        <ele>1481.228</ele>
        <time>2011-07-17T12:03:56Z</time>
      </trkpt>
      <trkpt lat="42.85106" lon="-0.13958">
        <ele>1480.914</ele>
        <time>2011-07-17T12:04:06Z</time>
      </trkpt>
      <trkpt lat="42.85104" lon="-0.13954">
        <ele>1480.992</ele>
        <time>2011-07-17T12:06:33Z</time>
      </trkpt>
      <trkpt lat="42.85112" lon="-0.13943">
        <ele>1482.492</ele>
        <time>2011-07-17T12:06:42Z</time>
      </trkpt>
      <trkpt lat="42.85114" lon="-0.13935">
        <ele>1481.003</ele>
        <time>2011-07-17T12:07:45Z</time>
      </trkpt>
      <trkpt lat="42.85125" lon="-0.13931">
        <ele>1482.173</ele>
        <time>2011-07-17T12:07:56Z</time>
      </trkpt>
      <trkpt lat="42.85127" lon="-0.1393">
        <ele>1482.472</ele>
        <time>2011-07-17T12:08:18Z</time>
      </trkpt>
      <trkpt lat="42.85132" lon="-0.13931">
        <ele>1483.947</ele>
        <time>2011-07-17T12:08:24Z</time>
      </trkpt>
      <trkpt lat="42.85136" lon="-0.13934">
        <ele>1485.638</ele>
        <time>2011-07-17T12:08:33Z</time>
      </trkpt>
      <trkpt lat="42.85121" lon="-0.13945">
        <ele>1488.294</ele>
        <time>2011-07-17T12:08:50Z</time>
      </trkpt>
      <trkpt lat="42.85111" lon="-0.1396">
        <ele>1491.851</ele>
        <time>2011-07-17T12:09:07Z</time>
      </trkpt>
      <trkpt lat="42.85105" lon="-0.1398">
        <ele>1494.946</ele>
        <time>2011-07-17T12:09:25Z</time>
      </trkpt>
      <trkpt lat="42.85101" lon="-0.13989">
        <ele>1496.009</ele>
        <time>2011-07-17T12:10:59Z</time>
      </trkpt>
      <trkpt lat="42.85103" lon="-0.13994">
        <ele>1496.019</ele>
        <time>2011-07-17T12:11:02Z</time>
      </trkpt>
      <trkpt lat="42.8509" lon="-0.14018">
        <ele>1496.215</ele>
        <time>2011-07-17T12:11:27Z</time>
      </trkpt>
      <trkpt lat="42.85085" lon="-0.14019">
        <ele>1493.924</ele>
        <time>2011-07-17T12:15:39Z</time>
      </trkpt>
      <trkpt lat="42.85091" lon="-0.14018">
        <ele>1495.18</ele>
        <time>2011-07-17T12:15:53Z</time>
      </trkpt>
      <trkpt lat="42.85102" lon="-0.1401">
        <ele>1495.214</ele>
        <time>2011-07-17T12:16:43Z</time>
      </trkpt>
      <trkpt lat="42.85107" lon="-0.13993">
        <ele>1496.184</ele>
        <time>2011-07-17T12:16:59Z</time>
      </trkpt>
      <trkpt lat="42.85104" lon="-0.1399">
        <ele>1496.09</ele>
        <time>2011-07-17T12:17:13Z</time>
      </trkpt>
      <trkpt lat="42.85092" lon="-0.13979">
        <ele>1495.8</ele>
        <time>2011-07-17T12:17:30Z</time>
      </trkpt>
      <trkpt lat="42.85087" lon="-0.13974">
        <ele>1495.788</ele>
        <time>2011-07-17T12:17:35Z</time>
      </trkpt>
      <trkpt lat="42.85087" lon="-0.13939">
        <ele>1494.525</ele>
        <time>2011-07-17T12:17:56Z</time>
      </trkpt>
      <trkpt lat="42.85078" lon="-0.13909">
        <ele>1491.184</ele>
        <time>2011-07-17T12:18:15Z</time>
      </trkpt>
      <trkpt lat="42.85077" lon="-0.13906">
        <ele>1490.784</ele>
        <time>2011-07-17T12:18:17Z</time>
      </trkpt>
      <trkpt lat="42.85077" lon="-0.13894">
        <ele>1489.474</ele>
        <time>2011-07-17T12:18:35Z</time>
      </trkpt>
      <trkpt lat="42.85076" lon="-0.13892">
        <ele>1489.353</ele>
        <time>2011-07-17T12:18:42Z</time>
      </trkpt>
      <trkpt lat="42.85066" lon="-0.13877">
        <ele>1491.226</ele>
        <time>2011-07-17T12:18:54Z</time>
      </trkpt>
      <trkpt lat="42.85062" lon="-0.13878">
        <ele>1493.217</ele>
        <time>2011-07-17T12:19:03Z</time>
      </trkpt>
      <trkpt lat="42.85058" lon="-0.13887">
        <ele>1494.441</ele>
        <time>2011-07-17T12:19:10Z</time>
      </trkpt>
      <trkpt lat="42.85056" lon="-0.13891">
        <ele>1495.129</ele>
        <time>2011-07-17T12:19:13Z</time>
      </trkpt>
      <trkpt lat="42.85055" lon="-0.13897">
        <ele>1496.198</ele>
        <time>2011-07-17T12:19:18Z</time>
      </trkpt>
      <trkpt lat="42.85051" lon="-0.13906">
        <ele>1498.607</ele>
        <time>2011-07-17T12:19:28Z</time>
      </trkpt>
      <trkpt lat="42.85051" lon="-0.13902">
        <ele>1499.76</ele>
        <time>2011-07-17T12:19:31Z</time>
      </trkpt>
      <trkpt lat="42.85051" lon="-0.1389">
        <ele>1502.035</ele>
        <time>2011-07-17T12:19:39Z</time>
      </trkpt>
      <trkpt lat="42.85051" lon="-0.13886">
        <ele>1502.234</ele>
        <time>2011-07-17T12:19:42Z</time>
      </trkpt>
      <trkpt lat="42.85051" lon="-0.13881">
        <ele>1503.55</ele>
        <time>2011-07-17T12:19:45Z</time>
      </trkpt>
      <trkpt lat="42.85049" lon="-0.1388">
        <ele>1504.209</ele>
        <time>2011-07-17T12:19:50Z</time>
      </trkpt>
      <trkpt lat="42.85048" lon="-0.13882">
        <ele>1504.307</ele>
        <time>2011-07-17T12:19:52Z</time>
      </trkpt>
      <trkpt lat="42.85047" lon="-0.13887">
        <ele>1505.597</ele>
        <time>2011-07-17T12:19:56Z</time>
      </trkpt>
      <trkpt lat="42.85039" lon="-0.13896">
        <ele>1509.036</ele>
        <time>2011-07-17T12:20:09Z</time>
      </trkpt>
      <trkpt lat="42.85038" lon="-0.13901">
        <ele>1509.71</ele>
        <time>2011-07-17T12:20:13Z</time>
      </trkpt>
      <trkpt lat="42.85029" lon="-0.1392">
        <ele>1512.682</ele>
        <time>2011-07-17T12:20:31Z</time>
      </trkpt>
      <trkpt lat="42.85026" lon="-0.13904">
        <ele>1515.277</ele>
        <time>2011-07-17T12:20:45Z</time>
      </trkpt>
      <trkpt lat="42.85026" lon="-0.13899">
        <ele>1515.72</ele>
        <time>2011-07-17T12:20:49Z</time>
      </trkpt>
      <trkpt lat="42.85027" lon="-0.13894">
        <ele>1515.526</ele>
        <time>2011-07-17T12:21:25Z</time>
      </trkpt>
      <trkpt lat="42.85027" lon="-0.13887">
        <ele>1516.142</ele>
        <time>2011-07-17T12:21:30Z</time>
      </trkpt>
      <trkpt lat="42.85027" lon="-0.13884">
        <ele>1516.274</ele>
        <time>2011-07-17T12:21:32Z</time>
      </trkpt>
      <trkpt lat="42.85032" lon="-0.13866">
        <ele>1518.927</ele>
        <time>2011-07-17T12:21:46Z</time>
      </trkpt>
      <trkpt lat="42.85032" lon="-0.13853">
        <ele>1521.325</ele>
        <time>2011-07-17T12:21:56Z</time>
      </trkpt>
      <trkpt lat="42.85031" lon="-0.13847">
        <ele>1521.35</ele>
        <time>2011-07-17T12:22:00Z</time>
      </trkpt>
      <trkpt lat="42.85025" lon="-0.13832">
        <ele>1522.617</ele>
        <time>2011-07-17T12:22:10Z</time>
      </trkpt>
      <trkpt lat="42.85024" lon="-0.13825">
        <ele>1523.386</ele>
        <time>2011-07-17T12:22:15Z</time>
      </trkpt>
      <trkpt lat="42.85022" lon="-0.13829">
        <ele>1524.26</ele>
        <time>2011-07-17T12:22:19Z</time>
      </trkpt>
      <trkpt lat="42.85019" lon="-0.13839">
        <ele>1525.483</ele>
        <time>2011-07-17T12:22:25Z</time>
      </trkpt>
      <trkpt lat="42.85014" lon="-0.13858">
        <ele>1527.914</ele>
        <time>2011-07-17T12:22:40Z</time>
      </trkpt>
      <trkpt lat="42.85011" lon="-0.13862">
        <ele>1529.016</ele>
        <time>2011-07-17T12:22:44Z</time>
      </trkpt>
      <trkpt lat="42.85002" lon="-0.13872">
        <ele>1530.636</ele>
        <time>2011-07-17T12:22:56Z</time>
      </trkpt>
      <trkpt lat="42.84999" lon="-0.13871">
        <ele>1532.819</ele>
        <time>2011-07-17T12:23:05Z</time>
      </trkpt>
      <trkpt lat="42.85" lon="-0.13868">
        <ele>1533.922</ele>
        <time>2011-07-17T12:23:16Z</time>
      </trkpt>
      <trkpt lat="42.85002" lon="-0.13853">
        <ele>1536.253</ele>
        <time>2011-07-17T12:23:28Z</time>
      </trkpt>
      <trkpt lat="42.85" lon="-0.13847">
        <ele>1537</ele>
        <time>2011-07-17T12:23:33Z</time>
      </trkpt>
      <trkpt lat="42.84997" lon="-0.13839">
        <ele>1538.241</ele>
        <time>2011-07-17T12:23:41Z</time>
      </trkpt>
      <trkpt lat="42.84984" lon="-0.1383">
        <ele>1540.769</ele>
        <time>2011-07-17T12:24:14Z</time>
      </trkpt>
      <trkpt lat="42.8498" lon="-0.13828">
        <ele>1542.384</ele>
        <time>2011-07-17T12:24:43Z</time>
      </trkpt>
      <trkpt lat="42.84975" lon="-0.13833">
        <ele>1544.529</ele>
        <time>2011-07-17T12:24:51Z</time>
      </trkpt>
      <trkpt lat="42.84974" lon="-0.13837">
        <ele>1545.299</ele>
        <time>2011-07-17T12:24:55Z</time>
      </trkpt>
      <trkpt lat="42.84971" lon="-0.13842">
        <ele>1547.211</ele>
        <time>2011-07-17T12:25:01Z</time>
      </trkpt>
      <trkpt lat="42.84966" lon="-0.13845">
        <ele>1549.4</ele>
        <time>2011-07-17T12:25:11Z</time>
      </trkpt>
      <trkpt lat="42.84956" lon="-0.13845">
        <ele>1552.418</ele>
        <time>2011-07-17T12:25:26Z</time>
      </trkpt>
      <trkpt lat="42.84948" lon="-0.13845">
        <ele>1554.144</ele>
        <time>2011-07-17T12:25:35Z</time>
      </trkpt>
      <trkpt lat="42.84937" lon="-0.1385">
        <ele>1556.803</ele>
        <time>2011-07-17T12:25:48Z</time>
      </trkpt>
      <trkpt lat="42.84934" lon="-0.13852">
        <ele>1557.606</ele>
        <time>2011-07-17T12:25:52Z</time>
      </trkpt>
      <trkpt lat="42.84926" lon="-0.13859">
        <ele>1559.975</ele>
        <time>2011-07-17T12:26:04Z</time>
      </trkpt>
      <trkpt lat="42.84917" lon="-0.13863">
        <ele>1563.542</ele>
        <time>2011-07-17T12:26:17Z</time>
      </trkpt>
      <trkpt lat="42.84916" lon="-0.13863">
        <ele>1563.546</ele>
        <time>2011-07-17T12:26:18Z</time>
      </trkpt>
      <trkpt lat="42.84904" lon="-0.13862">
        <ele>1566.179</ele>
        <time>2011-07-17T12:26:33Z</time>
      </trkpt>
      <trkpt lat="42.84905" lon="-0.13871">
        <ele>1567.553</ele>
        <time>2011-07-17T12:26:43Z</time>
      </trkpt>
      <trkpt lat="42.84905" lon="-0.13876">
        <ele>1568.432</ele>
        <time>2011-07-17T12:26:48Z</time>
      </trkpt>
      <trkpt lat="42.84905" lon="-0.13882">
        <ele>1570.334</ele>
        <time>2011-07-17T12:26:56Z</time>
      </trkpt>
      <trkpt lat="42.84899" lon="-0.13878">
        <ele>1571.776</ele>
        <time>2011-07-17T12:27:03Z</time>
      </trkpt>
      <trkpt lat="42.84892" lon="-0.13874">
        <ele>1573.683</ele>
        <time>2011-07-17T12:27:17Z</time>
      </trkpt>
      <trkpt lat="42.84882" lon="-0.13869">
        <ele>1576.285</ele>
        <time>2011-07-17T12:27:29Z</time>
      </trkpt>
      <trkpt lat="42.84875" lon="-0.13862">
        <ele>1579.09</ele>
        <time>2011-07-17T12:27:41Z</time>
      </trkpt>
      <trkpt lat="42.84868" lon="-0.13857">
        <ele>1581.072</ele>
        <time>2011-07-17T12:27:53Z</time>
      </trkpt>
      <trkpt lat="42.84859" lon="-0.13854">
        <ele>1583.392</ele>
        <time>2011-07-17T12:28:07Z</time>
      </trkpt>
      <trkpt lat="42.84854" lon="-0.13851">
        <ele>1583.906</ele>
        <time>2011-07-17T12:28:12Z</time>
      </trkpt>
      <trkpt lat="42.8484" lon="-0.13854">
        <ele>1586.925</ele>
        <time>2011-07-17T12:28:28Z</time>
      </trkpt>
      <trkpt lat="42.84832" lon="-0.13849">
        <ele>1589.753</ele>
        <time>2011-07-17T12:28:40Z</time>
      </trkpt>
      <trkpt lat="42.84823" lon="-0.13846">
        <ele>1591.658</ele>
        <time>2011-07-17T12:28:52Z</time>
      </trkpt>
      <trkpt lat="42.84816" lon="-0.13843">
        <ele>1593.972</ele>
        <time>2011-07-17T12:29:03Z</time>
      </trkpt>
      <trkpt lat="42.84809" lon="-0.13838">
        <ele>1596.275</ele>
        <time>2011-07-17T12:29:15Z</time>
      </trkpt>
      <trkpt lat="42.84799" lon="-0.1384">
        <ele>1598.579</ele>
        <time>2011-07-17T12:29:27Z</time>
      </trkpt>
      <trkpt lat="42.84791" lon="-0.1384">
        <ele>1600.382</ele>
        <time>2011-07-17T12:29:38Z</time>
      </trkpt>
      <trkpt lat="42.84772" lon="-0.13841">
        <ele>1602.487</ele>
        <time>2011-07-17T12:29:55Z</time>
      </trkpt>
      <trkpt lat="42.84771" lon="-0.13839">
        <ele>1602.399</ele>
        <time>2011-07-17T12:29:57Z</time>
      </trkpt>
      <trkpt lat="42.84758" lon="-0.13837">
        <ele>1603.96</ele>
        <time>2011-07-17T12:30:10Z</time>
      </trkpt>
      <trkpt lat="42.84754" lon="-0.13835">
        <ele>1604.908</ele>
        <time>2011-07-17T12:30:15Z</time>
      </trkpt>
      <trkpt lat="42.84751" lon="-0.13834">
        <ele>1604.967</ele>
        <time>2011-07-17T12:30:17Z</time>
      </trkpt>
      <trkpt lat="42.84746" lon="-0.13832">
        <ele>1604.934</ele>
        <time>2011-07-17T12:30:21Z</time>
      </trkpt>
      <trkpt lat="42.84743" lon="-0.13835">
        <ele>1605.687</ele>
        <time>2011-07-17T12:30:26Z</time>
      </trkpt>
      <trkpt lat="42.84738" lon="-0.13843">
        <ele>1607.117</ele>
        <time>2011-07-17T12:30:39Z</time>
      </trkpt>
      <trkpt lat="42.84731" lon="-0.13841">
        <ele>1606.853</ele>
        <time>2011-07-17T12:30:50Z</time>
      </trkpt>
      <trkpt lat="42.84725" lon="-0.13843">
        <ele>1607.001</ele>
        <time>2011-07-17T12:30:54Z</time>
      </trkpt>
      <trkpt lat="42.84717" lon="-0.13851">
        <ele>1607.174</ele>
        <time>2011-07-17T12:31:02Z</time>
      </trkpt>
      <trkpt lat="42.84703" lon="-0.13852">
        <ele>1608.997</ele>
        <time>2011-07-17T12:31:16Z</time>
      </trkpt>
      <trkpt lat="42.84699" lon="-0.13848">
        <ele>1610.43</ele>
        <time>2011-07-17T12:31:21Z</time>
      </trkpt>
      <trkpt lat="42.84694" lon="-0.13841">
        <ele>1611.28</ele>
        <time>2011-07-17T12:31:27Z</time>
      </trkpt>
      <trkpt lat="42.84691" lon="-0.13841">
        <ele>1612.566</ele>
        <time>2011-07-17T12:31:32Z</time>
      </trkpt>
      <trkpt lat="42.84679" lon="-0.13848">
        <ele>1615.465</ele>
        <time>2011-07-17T12:31:46Z</time>
      </trkpt>
      <trkpt lat="42.84673" lon="-0.13844">
        <ele>1618.203</ele>
        <time>2011-07-17T12:31:59Z</time>
      </trkpt>
      <trkpt lat="42.84673" lon="-0.13841">
        <ele>1620.595</ele>
        <time>2011-07-17T12:32:07Z</time>
      </trkpt>
      <trkpt lat="42.84669" lon="-0.1385">
        <ele>1622.867</ele>
        <time>2011-07-17T12:32:19Z</time>
      </trkpt>
      <trkpt lat="42.84661" lon="-0.13857">
        <ele>1625.493</ele>
        <time>2011-07-17T12:32:32Z</time>
      </trkpt>
      <trkpt lat="42.84658" lon="-0.13864">
        <ele>1627.561</ele>
        <time>2011-07-17T12:32:42Z</time>
      </trkpt>
      <trkpt lat="42.84654" lon="-0.13869">
        <ele>1629.577</ele>
        <time>2011-07-17T12:32:51Z</time>
      </trkpt>
      <trkpt lat="42.84648" lon="-0.13869">
        <ele>1630.705</ele>
        <time>2011-07-17T12:32:59Z</time>
      </trkpt>
      <trkpt lat="42.84635" lon="-0.13867">
        <ele>1633.306</ele>
        <time>2011-07-17T12:33:13Z</time>
      </trkpt>
      <trkpt lat="42.84631" lon="-0.13865">
        <ele>1633.053</ele>
        <time>2011-07-17T12:33:18Z</time>
      </trkpt>
      <trkpt lat="42.84628" lon="-0.13864">
        <ele>1634.165</ele>
        <time>2011-07-17T12:33:22Z</time>
      </trkpt>
      <trkpt lat="42.84623" lon="-0.13861">
        <ele>1633.314</ele>
        <time>2011-07-17T12:33:27Z</time>
      </trkpt>
      <trkpt lat="42.84613" lon="-0.13855">
        <ele>1633.151</ele>
        <time>2011-07-17T12:33:38Z</time>
      </trkpt>
      <trkpt lat="42.84602" lon="-0.13864">
        <ele>1634.132</ele>
        <time>2011-07-17T12:33:51Z</time>
      </trkpt>
      <trkpt lat="42.84597" lon="-0.13862">
        <ele>1636.118</ele>
        <time>2011-07-17T12:34:00Z</time>
      </trkpt>
      <trkpt lat="42.84596" lon="-0.1386">
        <ele>1636.67</ele>
        <time>2011-07-17T12:34:02Z</time>
      </trkpt>
      <trkpt lat="42.84597" lon="-0.13856">
        <ele>1637.545</ele>
        <time>2011-07-17T12:34:05Z</time>
      </trkpt>
      <trkpt lat="42.84596" lon="-0.13853">
        <ele>1638.955</ele>
        <time>2011-07-17T12:34:10Z</time>
      </trkpt>
      <trkpt lat="42.84594" lon="-0.13855">
        <ele>1639.585</ele>
        <time>2011-07-17T12:34:12Z</time>
      </trkpt>
      <trkpt lat="42.84592" lon="-0.13858">
        <ele>1639.537</ele>
        <time>2011-07-17T12:34:14Z</time>
      </trkpt>
      <trkpt lat="42.84587" lon="-0.13857">
        <ele>1642.541</ele>
        <time>2011-07-17T12:34:27Z</time>
      </trkpt>
      <trkpt lat="42.84584" lon="-0.13855">
        <ele>1642.741</ele>
        <time>2011-07-17T12:34:29Z</time>
      </trkpt>
      <trkpt lat="42.8458" lon="-0.13856">
        <ele>1643.714</ele>
        <time>2011-07-17T12:34:34Z</time>
      </trkpt>
      <trkpt lat="42.84577" lon="-0.13862">
        <ele>1645.45</ele>
        <time>2011-07-17T12:34:44Z</time>
      </trkpt>
      <trkpt lat="42.8456" lon="-0.13868">
        <ele>1646.27</ele>
        <time>2011-07-17T12:34:57Z</time>
      </trkpt>
      <trkpt lat="42.84557" lon="-0.13869">
        <ele>1646.186</ele>
        <time>2011-07-17T12:34:59Z</time>
      </trkpt>
      <trkpt lat="42.84535" lon="-0.13878">
        <ele>1645.43</ele>
        <time>2011-07-17T12:35:16Z</time>
      </trkpt>
      <trkpt lat="42.84516" lon="-0.13884">
        <ele>1645.858</ele>
        <time>2011-07-17T12:35:33Z</time>
      </trkpt>
      <trkpt lat="42.84508" lon="-0.13889">
        <ele>1646.489</ele>
        <time>2011-07-17T12:35:41Z</time>
      </trkpt>
      <trkpt lat="42.84506" lon="-0.13889">
        <ele>1647.332</ele>
        <time>2011-07-17T12:35:44Z</time>
      </trkpt>
      <trkpt lat="42.84494" lon="-0.13891">
        <ele>1647.646</ele>
        <time>2011-07-17T12:35:52Z</time>
      </trkpt>
      <trkpt lat="42.84492" lon="-0.1389">
        <ele>1648.155</ele>
        <time>2011-07-17T12:35:54Z</time>
      </trkpt>
      <trkpt lat="42.84491" lon="-0.13888">
        <ele>1648.592</ele>
        <time>2011-07-17T12:35:56Z</time>
      </trkpt>
      <trkpt lat="42.8448" lon="-0.13885">
        <ele>1650.244</ele>
        <time>2011-07-17T12:36:10Z</time>
      </trkpt>
      <trkpt lat="42.84471" lon="-0.13881">
        <ele>1652.271</ele>
        <time>2011-07-17T12:36:22Z</time>
      </trkpt>
      <trkpt lat="42.84461" lon="-0.13878">
        <ele>1654.567</ele>
        <time>2011-07-17T12:36:33Z</time>
      </trkpt>
      <trkpt lat="42.84454" lon="-0.13873">
        <ele>1656.818</ele>
        <time>2011-07-17T12:36:43Z</time>
      </trkpt>
      <trkpt lat="42.84449" lon="-0.13874">
        <ele>1658.201</ele>
        <time>2011-07-17T12:36:47Z</time>
      </trkpt>
      <trkpt lat="42.84435" lon="-0.13864">
        <ele>1660.182</ele>
        <time>2011-07-17T12:37:03Z</time>
      </trkpt>
      <trkpt lat="42.84431" lon="-0.13864">
        <ele>1660.795</ele>
        <time>2011-07-17T12:37:07Z</time>
      </trkpt>
      <trkpt lat="42.84423" lon="-0.13864">
        <ele>1662.501</ele>
        <time>2011-07-17T12:37:15Z</time>
      </trkpt>
      <trkpt lat="42.84411" lon="-0.13866">
        <ele>1664.015</ele>
        <time>2011-07-17T12:37:26Z</time>
      </trkpt>
      <trkpt lat="42.84405" lon="-0.13868">
        <ele>1664.519</ele>
        <time>2011-07-17T12:37:32Z</time>
      </trkpt>
      <trkpt lat="42.84402" lon="-0.13869">
        <ele>1664.917</ele>
        <time>2011-07-17T12:37:35Z</time>
      </trkpt>
      <trkpt lat="42.84393" lon="-0.13874">
        <ele>1666.035</ele>
        <time>2011-07-17T12:37:44Z</time>
      </trkpt>
      <trkpt lat="42.84388" lon="-0.13872">
        <ele>1666.321</ele>
        <time>2011-07-17T12:37:48Z</time>
      </trkpt>
      <trkpt lat="42.84375" lon="-0.13872">
        <ele>1668.696</ele>
        <time>2011-07-17T12:38:03Z</time>
      </trkpt>
      <trkpt lat="42.84372" lon="-0.13873">
        <ele>1669.985</ele>
        <time>2011-07-17T12:38:07Z</time>
      </trkpt>
      <trkpt lat="42.8437" lon="-0.13873">
        <ele>1669.9</ele>
        <time>2011-07-17T12:38:09Z</time>
      </trkpt>
      <trkpt lat="42.84366" lon="-0.13874">
        <ele>1670.141</ele>
        <time>2011-07-17T12:38:12Z</time>
      </trkpt>
      <trkpt lat="42.84355" lon="-0.13874">
        <ele>1669.678</ele>
        <time>2011-07-17T12:38:20Z</time>
      </trkpt>
      <trkpt lat="42.84349" lon="-0.13877">
        <ele>1670.217</ele>
        <time>2011-07-17T12:38:26Z</time>
      </trkpt>
      <trkpt lat="42.84328" lon="-0.13877">
        <ele>1671.431</ele>
        <time>2011-07-17T12:38:44Z</time>
      </trkpt>
      <trkpt lat="42.84316" lon="-0.13873">
        <ele>1671.731</ele>
        <time>2011-07-17T12:38:54Z</time>
      </trkpt>
      <trkpt lat="42.8431" lon="-0.13872">
        <ele>1671.441</ele>
        <time>2011-07-17T12:39:01Z</time>
      </trkpt>
      <trkpt lat="42.84299" lon="-0.13871">
        <ele>1672.54</ele>
        <time>2011-07-17T12:39:12Z</time>
      </trkpt>
      <trkpt lat="42.84286" lon="-0.1387">
        <ele>1674.576</ele>
        <time>2011-07-17T12:39:25Z</time>
      </trkpt>
      <trkpt lat="42.84275" lon="-0.13867">
        <ele>1676.856</ele>
        <time>2011-07-17T12:39:34Z</time>
      </trkpt>
      <trkpt lat="42.84265" lon="-0.13874">
        <ele>1677.571</ele>
        <time>2011-07-17T12:39:47Z</time>
      </trkpt>
      <trkpt lat="42.84257" lon="-0.13881">
        <ele>1678.427</ele>
        <time>2011-07-17T12:39:57Z</time>
      </trkpt>
      <trkpt lat="42.84257" lon="-0.13884">
        <ele>1678.96</ele>
        <time>2011-07-17T12:40:02Z</time>
      </trkpt>
      <trkpt lat="42.84257" lon="-0.13894">
        <ele>1678.479</ele>
        <time>2011-07-17T12:40:07Z</time>
      </trkpt>
      <trkpt lat="42.84257" lon="-0.139">
        <ele>1678.909</ele>
        <time>2011-07-17T12:40:10Z</time>
      </trkpt>
      <trkpt lat="42.84255" lon="-0.13905">
        <ele>1679.726</ele>
        <time>2011-07-17T12:40:15Z</time>
      </trkpt>
      <trkpt lat="42.8424" lon="-0.13911">
        <ele>1678.635</ele>
        <time>2011-07-17T12:40:25Z</time>
      </trkpt>
      <trkpt lat="42.84235" lon="-0.13915">
        <ele>1678.596</ele>
        <time>2011-07-17T12:40:29Z</time>
      </trkpt>
      <trkpt lat="42.84223" lon="-0.13909">
        <ele>1680.587</ele>
        <time>2011-07-17T12:40:41Z</time>
      </trkpt>
      <trkpt lat="42.84218" lon="-0.13909">
        <ele>1680.46</ele>
        <time>2011-07-17T12:40:45Z</time>
      </trkpt>
      <trkpt lat="42.84206" lon="-0.13913">
        <ele>1680.864</ele>
        <time>2011-07-17T12:40:56Z</time>
      </trkpt>
      <trkpt lat="42.842" lon="-0.13912">
        <ele>1681.312</ele>
        <time>2011-07-17T12:41:02Z</time>
      </trkpt>
      <trkpt lat="42.84194" lon="-0.1391">
        <ele>1681.714</ele>
        <time>2011-07-17T12:41:06Z</time>
      </trkpt>
      <trkpt lat="42.84185" lon="-0.13904">
        <ele>1683.051</ele>
        <time>2011-07-17T12:41:19Z</time>
      </trkpt>
      <trkpt lat="42.84173" lon="-0.13902">
        <ele>1682.921</ele>
        <time>2011-07-17T12:41:30Z</time>
      </trkpt>
      <trkpt lat="42.84166" lon="-0.13894">
        <ele>1683.049</ele>
        <time>2011-07-17T12:41:37Z</time>
      </trkpt>
      <trkpt lat="42.84159" lon="-0.13887">
        <ele>1683.625</ele>
        <time>2011-07-17T12:41:44Z</time>
      </trkpt>
      <trkpt lat="42.84141" lon="-0.13889">
        <ele>1684.645</ele>
        <time>2011-07-17T12:42:01Z</time>
      </trkpt>
      <trkpt lat="42.84139" lon="-0.13888">
        <ele>1685.167</ele>
        <time>2011-07-17T12:42:04Z</time>
      </trkpt>
      <trkpt lat="42.84128" lon="-0.13883">
        <ele>1687.375</ele>
        <time>2011-07-17T12:42:14Z</time>
      </trkpt>
      <trkpt lat="42.84125" lon="-0.13883">
        <ele>1688.213</ele>
        <time>2011-07-17T12:42:18Z</time>
      </trkpt>
      <trkpt lat="42.8412" lon="-0.13878">
        <ele>1689.897</ele>
        <time>2011-07-17T12:42:25Z</time>
      </trkpt>
      <trkpt lat="42.84115" lon="-0.13877">
        <ele>1691.349</ele>
        <time>2011-07-17T12:42:32Z</time>
      </trkpt>
      <trkpt lat="42.84111" lon="-0.13873">
        <ele>1693.135</ele>
        <time>2011-07-17T12:42:49Z</time>
      </trkpt>
      <trkpt lat="42.8411" lon="-0.13868">
        <ele>1693.593</ele>
        <time>2011-07-17T12:42:53Z</time>
      </trkpt>
      <trkpt lat="42.84112" lon="-0.13862">
        <ele>1694.949</ele>
        <time>2011-07-17T12:42:59Z</time>
      </trkpt>
      <trkpt lat="42.8411" lon="-0.13862">
        <ele>1695.455</ele>
        <time>2011-07-17T12:43:03Z</time>
      </trkpt>
      <trkpt lat="42.84106" lon="-0.13856">
        <ele>1698.734</ele>
        <time>2011-07-17T12:43:16Z</time>
      </trkpt>
      <trkpt lat="42.84103" lon="-0.13852">
        <ele>1699.592</ele>
        <time>2011-07-17T12:43:21Z</time>
      </trkpt>
      <trkpt lat="42.84095" lon="-0.13849">
        <ele>1700.601</ele>
        <time>2011-07-17T12:43:37Z</time>
      </trkpt>
      <trkpt lat="42.84091" lon="-0.13844">
        <ele>1701.461</ele>
        <time>2011-07-17T12:43:55Z</time>
      </trkpt>
      <trkpt lat="42.84092" lon="-0.13846">
        <ele>1701.517</ele>
        <time>2011-07-17T12:44:16Z</time>
      </trkpt>
      <trkpt lat="42.84084" lon="-0.13843">
        <ele>1701.231</ele>
        <time>2011-07-17T12:44:22Z</time>
      </trkpt>
      <trkpt lat="42.84078" lon="-0.13845">
        <ele>1700.489</ele>
        <time>2011-07-17T12:44:28Z</time>
      </trkpt>
      <trkpt lat="42.84071" lon="-0.1384">
        <ele>1700.428</ele>
        <time>2011-07-17T12:44:34Z</time>
      </trkpt>
      <trkpt lat="42.84051" lon="-0.13837">
        <ele>1698.027</ele>
        <time>2011-07-17T12:44:49Z</time>
      </trkpt>
      <trkpt lat="42.84042" lon="-0.13837">
        <ele>1696.079</ele>
        <time>2011-07-17T12:44:56Z</time>
      </trkpt>
      <trkpt lat="42.8404" lon="-0.13836">
        <ele>1696.075</ele>
        <time>2011-07-17T12:44:58Z</time>
      </trkpt>
      <trkpt lat="42.84033" lon="-0.13839">
        <ele>1694.077</ele>
        <time>2011-07-17T12:45:05Z</time>
      </trkpt>
      <trkpt lat="42.84025" lon="-0.13837">
        <ele>1693.36</ele>
        <time>2011-07-17T12:45:11Z</time>
      </trkpt>
      <trkpt lat="42.84023" lon="-0.1384">
        <ele>1692.747</ele>
        <time>2011-07-17T12:45:14Z</time>
      </trkpt>
      <trkpt lat="42.84009" lon="-0.13846">
        <ele>1690.594</ele>
        <time>2011-07-17T12:45:26Z</time>
      </trkpt>
      <trkpt lat="42.83992" lon="-0.13858">
        <ele>1690.026</ele>
        <time>2011-07-17T12:45:42Z</time>
      </trkpt>
      <trkpt lat="42.83987" lon="-0.13858">
        <ele>1690.82</ele>
        <time>2011-07-17T12:45:47Z</time>
      </trkpt>
      <trkpt lat="42.83973" lon="-0.13858">
        <ele>1692.022</ele>
        <time>2011-07-17T12:45:57Z</time>
      </trkpt>
      <trkpt lat="42.83963" lon="-0.13862">
        <ele>1692.886</ele>
        <time>2011-07-17T12:46:07Z</time>
      </trkpt>
      <trkpt lat="42.83952" lon="-0.13865">
        <ele>1693.904</ele>
        <time>2011-07-17T12:46:18Z</time>
      </trkpt>
      <trkpt lat="42.83941" lon="-0.13864">
        <ele>1696.478</ele>
        <time>2011-07-17T12:46:31Z</time>
      </trkpt>
      <trkpt lat="42.83933" lon="-0.13866">
        <ele>1696.454</ele>
        <time>2011-07-17T12:46:39Z</time>
      </trkpt>
      <trkpt lat="42.83929" lon="-0.1387">
        <ele>1695.659</ele>
        <time>2011-07-17T12:46:42Z</time>
      </trkpt>
      <trkpt lat="42.83912" lon="-0.13875">
        <ele>1695.134</ele>
        <time>2011-07-17T12:46:57Z</time>
      </trkpt>
      <trkpt lat="42.83906" lon="-0.13876">
        <ele>1694.463</ele>
        <time>2011-07-17T12:47:02Z</time>
      </trkpt>
      <trkpt lat="42.83899" lon="-0.13874">
        <ele>1695.294</ele>
        <time>2011-07-17T12:47:08Z</time>
      </trkpt>
      <trkpt lat="42.83891" lon="-0.13874">
        <ele>1696.017</ele>
        <time>2011-07-17T12:47:15Z</time>
      </trkpt>
      <trkpt lat="42.83883" lon="-0.13874">
        <ele>1696.332</ele>
        <time>2011-07-17T12:47:22Z</time>
      </trkpt>
      <trkpt lat="42.83874" lon="-0.13872">
        <ele>1696.478</ele>
        <time>2011-07-17T12:47:29Z</time>
      </trkpt>
      <trkpt lat="42.83871" lon="-0.1387">
        <ele>1696.516</ele>
        <time>2011-07-17T12:47:32Z</time>
      </trkpt>
      <trkpt lat="42.83867" lon="-0.13871">
        <ele>1697.124</ele>
        <time>2011-07-17T12:47:36Z</time>
      </trkpt>
      <trkpt lat="42.83864" lon="-0.13871">
        <ele>1697.931</ele>
        <time>2011-07-17T12:47:40Z</time>
      </trkpt>
      <trkpt lat="42.83854" lon="-0.13868">
        <ele>1699.594</ele>
        <time>2011-07-17T12:47:49Z</time>
      </trkpt>
      <trkpt lat="42.8385" lon="-0.13869">
        <ele>1699.99</ele>
        <time>2011-07-17T12:47:53Z</time>
      </trkpt>
      <trkpt lat="42.83846" lon="-0.13869">
        <ele>1700.753</ele>
        <time>2011-07-17T12:47:57Z</time>
      </trkpt>
      <trkpt lat="42.83841" lon="-0.13866">
        <ele>1701.527</ele>
        <time>2011-07-17T12:48:02Z</time>
      </trkpt>
      <trkpt lat="42.83838" lon="-0.13866">
        <ele>1702.569</ele>
        <time>2011-07-17T12:48:06Z</time>
      </trkpt>
      <trkpt lat="42.83834" lon="-0.13863">
        <ele>1702.738</ele>
        <time>2011-07-17T12:48:11Z</time>
      </trkpt>
      <trkpt lat="42.83814" lon="-0.1385">
        <ele>1704.493</ele>
        <time>2011-07-17T12:48:31Z</time>
      </trkpt>
      <trkpt lat="42.83802" lon="-0.13844">
        <ele>1704.44</ele>
        <time>2011-07-17T12:48:42Z</time>
      </trkpt>
      <trkpt lat="42.83796" lon="-0.13844">
        <ele>1705.133</ele>
        <time>2011-07-17T12:48:48Z</time>
      </trkpt>
      <trkpt lat="42.83793" lon="-0.13844">
        <ele>1705.558</ele>
        <time>2011-07-17T12:48:50Z</time>
      </trkpt>
      <trkpt lat="42.8378" lon="-0.1384">
        <ele>1706.689</ele>
        <time>2011-07-17T12:49:03Z</time>
      </trkpt>
      <trkpt lat="42.83768" lon="-0.13831">
        <ele>1708.72</ele>
        <time>2011-07-17T12:49:16Z</time>
      </trkpt>
      <trkpt lat="42.83767" lon="-0.1383">
        <ele>1709.048</ele>
        <time>2011-07-17T12:49:18Z</time>
      </trkpt>
      <trkpt lat="42.83758" lon="-0.13828">
        <ele>1710.836</ele>
        <time>2011-07-17T12:49:30Z</time>
      </trkpt>
      <trkpt lat="42.83742" lon="-0.13828">
        <ele>1712.622</ele>
        <time>2011-07-17T12:49:43Z</time>
      </trkpt>
      <trkpt lat="42.83725" lon="-0.13834">
        <ele>1713.518</ele>
        <time>2011-07-17T12:49:58Z</time>
      </trkpt>
      <trkpt lat="42.83723" lon="-0.13833">
        <ele>1713.985</ele>
        <time>2011-07-17T12:50:01Z</time>
      </trkpt>
      <trkpt lat="42.8372" lon="-0.13832">
        <ele>1714.76</ele>
        <time>2011-07-17T12:50:03Z</time>
      </trkpt>
      <trkpt lat="42.837" lon="-0.13836">
        <ele>1715.434</ele>
        <time>2011-07-17T12:50:19Z</time>
      </trkpt>
      <trkpt lat="42.83694" lon="-0.13834">
        <ele>1716.143</ele>
        <time>2011-07-17T12:50:24Z</time>
      </trkpt>
      <trkpt lat="42.83692" lon="-0.13834">
        <ele>1716.616</ele>
        <time>2011-07-17T12:50:27Z</time>
      </trkpt>
      <trkpt lat="42.8369" lon="-0.13832">
        <ele>1716.78</ele>
        <time>2011-07-17T12:50:30Z</time>
      </trkpt>
      <trkpt lat="42.83684" lon="-0.13834">
        <ele>1717.382</ele>
        <time>2011-07-17T12:50:34Z</time>
      </trkpt>
      <trkpt lat="42.83672" lon="-0.13831">
        <ele>1717.466</ele>
        <time>2011-07-17T12:50:44Z</time>
      </trkpt>
      <trkpt lat="42.83652" lon="-0.13837">
        <ele>1718.055</ele>
        <time>2011-07-17T12:50:59Z</time>
      </trkpt>
      <trkpt lat="42.83636" lon="-0.13847">
        <ele>1719.731</ele>
        <time>2011-07-17T12:51:15Z</time>
      </trkpt>
      <trkpt lat="42.83622" lon="-0.1386">
        <ele>1722.161</ele>
        <time>2011-07-17T12:51:31Z</time>
      </trkpt>
      <trkpt lat="42.83608" lon="-0.13863">
        <ele>1722.035</ele>
        <time>2011-07-17T12:51:41Z</time>
      </trkpt>
      <trkpt lat="42.83603" lon="-0.13865">
        <ele>1721.995</ele>
        <time>2011-07-17T12:51:45Z</time>
      </trkpt>
      <trkpt lat="42.83591" lon="-0.13866">
        <ele>1722.824</ele>
        <time>2011-07-17T12:51:56Z</time>
      </trkpt>
      <trkpt lat="42.83581" lon="-0.13864">
        <ele>1723.366</ele>
        <time>2011-07-17T12:52:05Z</time>
      </trkpt>
      <trkpt lat="42.83558" lon="-0.13866">
        <ele>1725.32</ele>
        <time>2011-07-17T12:52:25Z</time>
      </trkpt>
      <trkpt lat="42.83556" lon="-0.13866">
        <ele>1725.321</ele>
        <time>2011-07-17T12:52:26Z</time>
      </trkpt>
      <trkpt lat="42.83554" lon="-0.13866">
        <ele>1725.11</ele>
        <time>2011-07-17T12:52:28Z</time>
      </trkpt>
      <trkpt lat="42.83528" lon="-0.13875">
        <ele>1725.345</ele>
        <time>2011-07-17T12:52:48Z</time>
      </trkpt>
      <trkpt lat="42.83524" lon="-0.13876">
        <ele>1725.645</ele>
        <time>2011-07-17T12:52:52Z</time>
      </trkpt>
      <trkpt lat="42.83513" lon="-0.13884">
        <ele>1725.947</ele>
        <time>2011-07-17T12:53:09Z</time>
      </trkpt>
      <trkpt lat="42.83493" lon="-0.13898">
        <ele>1726.949</ele>
        <time>2011-07-17T12:53:28Z</time>
      </trkpt>
      <trkpt lat="42.8349" lon="-0.139">
        <ele>1727.424</ele>
        <time>2011-07-17T12:53:31Z</time>
      </trkpt>
      <trkpt lat="42.83467" lon="-0.13915">
        <ele>1729.852</ele>
        <time>2011-07-17T12:53:54Z</time>
      </trkpt>
      <trkpt lat="42.8346" lon="-0.13932">
        <ele>1730.811</ele>
        <time>2011-07-17T12:54:10Z</time>
      </trkpt>
      <trkpt lat="42.8346" lon="-0.1394">
        <ele>1730.906</ele>
        <time>2011-07-17T12:54:21Z</time>
      </trkpt>
      <trkpt lat="42.8346" lon="-0.13946">
        <ele>1730.715</ele>
        <time>2011-07-17T12:54:24Z</time>
      </trkpt>
      <trkpt lat="42.83461" lon="-0.13951">
        <ele>1729.971</ele>
        <time>2011-07-17T12:54:27Z</time>
      </trkpt>
      <trkpt lat="42.83458" lon="-0.13964">
        <ele>1729.15</ele>
        <time>2011-07-17T12:54:36Z</time>
      </trkpt>
      <trkpt lat="42.83459" lon="-0.1398">
        <ele>1729.902</ele>
        <time>2011-07-17T12:54:45Z</time>
      </trkpt>
      <trkpt lat="42.83456" lon="-0.13999">
        <ele>1730.698</ele>
        <time>2011-07-17T12:54:59Z</time>
      </trkpt>
      <trkpt lat="42.83476" lon="-0.14014">
        <ele>1727.922</ele>
        <time>2011-07-17T12:55:16Z</time>
      </trkpt>
      <trkpt lat="42.83485" lon="-0.14016">
        <ele>1728.475</ele>
        <time>2011-07-17T12:55:25Z</time>
      </trkpt>
      <trkpt lat="42.83492" lon="-0.14021">
        <ele>1727.561</ele>
        <time>2011-07-17T12:55:32Z</time>
      </trkpt>
      <trkpt lat="42.83495" lon="-0.14025">
        <ele>1728.245</ele>
        <time>2011-07-17T12:55:36Z</time>
      </trkpt>
      <trkpt lat="42.83503" lon="-0.14026">
        <ele>1728.286</ele>
        <time>2011-07-17T12:55:43Z</time>
      </trkpt>
      <trkpt lat="42.83508" lon="-0.14034">
        <ele>1726.354</ele>
        <time>2011-07-17T12:58:09Z</time>
      </trkpt>
      <trkpt lat="42.83503" lon="-0.14039">
        <ele>1725.597</ele>
        <time>2011-07-17T12:58:50Z</time>
      </trkpt>
      <trkpt lat="42.83509" lon="-0.14037">
        <ele>1725.347</ele>
        <time>2011-07-17T13:06:07Z</time>
      </trkpt>
      <trkpt lat="42.8351" lon="-0.1404">
        <ele>1724.578</ele>
        <time>2011-07-17T13:06:35Z</time>
      </trkpt>
      <trkpt lat="42.83515" lon="-0.14034">
        <ele>1724.679</ele>
        <time>2011-07-17T13:06:41Z</time>
      </trkpt>
      <trkpt lat="42.83527" lon="-0.14046">
        <ele>1725.161</ele>
        <time>2011-07-17T13:06:53Z</time>
      </trkpt>
      <trkpt lat="42.83526" lon="-0.14055">
        <ele>1725.399</ele>
        <time>2011-07-17T13:06:58Z</time>
      </trkpt>
      <trkpt lat="42.83513" lon="-0.14083">
        <ele>1725.443</ele>
        <time>2011-07-17T13:07:15Z</time>
      </trkpt>
      <trkpt lat="42.83504" lon="-0.14105">
        <ele>1726.749</ele>
        <time>2011-07-17T13:07:29Z</time>
      </trkpt>
      <trkpt lat="42.83502" lon="-0.14109">
        <ele>1726.648</ele>
        <time>2011-07-17T13:07:31Z</time>
      </trkpt>
      <trkpt lat="42.83486" lon="-0.14129">
        <ele>1727.667</ele>
        <time>2011-07-17T13:07:50Z</time>
      </trkpt>
      <trkpt lat="42.83478" lon="-0.14137">
        <ele>1728.534</ele>
        <time>2011-07-17T13:08:22Z</time>
      </trkpt>
      <trkpt lat="42.83472" lon="-0.14142">
        <ele>1727.911</ele>
        <time>2011-07-17T13:15:04Z</time>
      </trkpt>
      <trkpt lat="42.83482" lon="-0.14135">
        <ele>1728.25</ele>
        <time>2011-07-17T13:15:11Z</time>
      </trkpt>
      <trkpt lat="42.83491" lon="-0.14128">
        <ele>1726.72</ele>
        <time>2011-07-17T13:15:27Z</time>
      </trkpt>
      <trkpt lat="42.83502" lon="-0.14118">
        <ele>1726.582</ele>
        <time>2011-07-17T13:16:08Z</time>
      </trkpt>
      <trkpt lat="42.83512" lon="-0.14096">
        <ele>1725.901</ele>
        <time>2011-07-17T13:16:20Z</time>
      </trkpt>
      <trkpt lat="42.83517" lon="-0.14077">
        <ele>1725.142</ele>
        <time>2011-07-17T13:16:30Z</time>
      </trkpt>
      <trkpt lat="42.83519" lon="-0.14073">
        <ele>1724.833</ele>
        <time>2011-07-17T13:16:33Z</time>
      </trkpt>
      <trkpt lat="42.83524" lon="-0.1406">
        <ele>1724.891</ele>
        <time>2011-07-17T13:17:20Z</time>
      </trkpt>
      <trkpt lat="42.83525" lon="-0.14049">
        <ele>1723.997</ele>
        <time>2011-07-17T13:17:26Z</time>
      </trkpt>
      <trkpt lat="42.83513" lon="-0.14031">
        <ele>1723.454</ele>
        <time>2011-07-17T13:17:38Z</time>
      </trkpt>
      <trkpt lat="42.83503" lon="-0.14031">
        <ele>1724.765</ele>
        <time>2011-07-17T13:17:46Z</time>
      </trkpt>
      <trkpt lat="42.83496" lon="-0.14025">
        <ele>1724.937</ele>
        <time>2011-07-17T13:17:52Z</time>
      </trkpt>
      <trkpt lat="42.8348" lon="-0.14017">
        <ele>1724.601</ele>
        <time>2011-07-17T13:18:08Z</time>
      </trkpt>
      <trkpt lat="42.83478" lon="-0.14016">
        <ele>1725.123</ele>
        <time>2011-07-17T13:18:10Z</time>
      </trkpt>
      <trkpt lat="42.83458" lon="-0.14012">
        <ele>1726.39</ele>
        <time>2011-07-17T13:18:27Z</time>
      </trkpt>
      <trkpt lat="42.83453" lon="-0.14">
        <ele>1727.484</ele>
        <time>2011-07-17T13:19:15Z</time>
      </trkpt>
      <trkpt lat="42.83452" lon="-0.13992">
        <ele>1727.303</ele>
        <time>2011-07-17T13:19:21Z</time>
      </trkpt>
      <trkpt lat="42.83457" lon="-0.13966">
        <ele>1725.869</ele>
        <time>2011-07-17T13:19:36Z</time>
      </trkpt>
      <trkpt lat="42.83454" lon="-0.1396">
        <ele>1725.504</ele>
        <time>2011-07-17T13:19:40Z</time>
      </trkpt>
      <trkpt lat="42.83448" lon="-0.13957">
        <ele>1724.597</ele>
        <time>2011-07-17T13:19:44Z</time>
      </trkpt>
      <trkpt lat="42.83441" lon="-0.1394">
        <ele>1723.993</ele>
        <time>2011-07-17T13:20:14Z</time>
      </trkpt>
      <trkpt lat="42.8344" lon="-0.13933">
        <ele>1724.047</ele>
        <time>2011-07-17T13:20:32Z</time>
      </trkpt>
      <trkpt lat="42.8343" lon="-0.13921">
        <ele>1724.567</ele>
        <time>2011-07-17T13:20:42Z</time>
      </trkpt>
      <trkpt lat="42.83412" lon="-0.13904">
        <ele>1727.749</ele>
        <time>2011-07-17T13:21:01Z</time>
      </trkpt>
      <trkpt lat="42.83396" lon="-0.13893">
        <ele>1728.1</ele>
        <time>2011-07-17T13:21:17Z</time>
      </trkpt>
      <trkpt lat="42.83383" lon="-0.13872">
        <ele>1727.332</ele>
        <time>2011-07-17T13:21:39Z</time>
      </trkpt>
      <trkpt lat="42.83375" lon="-0.13863">
        <ele>1726.636</ele>
        <time>2011-07-17T13:23:58Z</time>
      </trkpt>
      <trkpt lat="42.83386" lon="-0.13875">
        <ele>1727.496</ele>
        <time>2011-07-17T13:24:39Z</time>
      </trkpt>
      <trkpt lat="42.83394" lon="-0.13882">
        <ele>1728.175</ele>
        <time>2011-07-17T13:24:45Z</time>
      </trkpt>
      <trkpt lat="42.83398" lon="-0.13894">
        <ele>1729.265</ele>
        <time>2011-07-17T13:27:53Z</time>
      </trkpt>
      <trkpt lat="42.83431" lon="-0.13905">
        <ele>1728.92</ele>
        <time>2011-07-17T13:28:15Z</time>
      </trkpt>
      <trkpt lat="42.8346" lon="-0.13913">
        <ele>1728.654</ele>
        <time>2011-07-17T13:28:35Z</time>
      </trkpt>
      <trkpt lat="42.83483" lon="-0.1391">
        <ele>1727.747</ele>
        <time>2011-07-17T13:28:53Z</time>
      </trkpt>
      <trkpt lat="42.83489" lon="-0.13903">
        <ele>1726.967</ele>
        <time>2011-07-17T13:28:59Z</time>
      </trkpt>
      <trkpt lat="42.83493" lon="-0.139">
        <ele>1726.434</ele>
        <time>2011-07-17T13:29:02Z</time>
      </trkpt>
      <trkpt lat="42.8352" lon="-0.13877">
        <ele>1724.221</ele>
        <time>2011-07-17T13:29:23Z</time>
      </trkpt>
      <trkpt lat="42.83545" lon="-0.13867">
        <ele>1723.86</ele>
        <time>2011-07-17T13:29:41Z</time>
      </trkpt>
      <trkpt lat="42.83572" lon="-0.13861">
        <ele>1722.747</ele>
        <time>2011-07-17T13:30:00Z</time>
      </trkpt>
      <trkpt lat="42.83595" lon="-0.13863">
        <ele>1721.055</ele>
        <time>2011-07-17T13:30:14Z</time>
      </trkpt>
      <trkpt lat="42.83598" lon="-0.13864">
        <ele>1721.273</ele>
        <time>2011-07-17T13:30:16Z</time>
      </trkpt>
      <trkpt lat="42.8362" lon="-0.13857">
        <ele>1720.047</ele>
        <time>2011-07-17T13:30:32Z</time>
      </trkpt>
      <trkpt lat="42.83622" lon="-0.13856">
        <ele>1719.922</ele>
        <time>2011-07-17T13:30:34Z</time>
      </trkpt>
      <trkpt lat="42.83627" lon="-0.13853">
        <ele>1719.909</ele>
        <time>2011-07-17T13:30:39Z</time>
      </trkpt>
      <trkpt lat="42.83631" lon="-0.13848">
        <ele>1718.724</ele>
        <time>2011-07-17T13:30:43Z</time>
      </trkpt>
      <trkpt lat="42.83654" lon="-0.13832">
        <ele>1716.093</ele>
        <time>2011-07-17T13:31:01Z</time>
      </trkpt>
      <trkpt lat="42.83665" lon="-0.13828">
        <ele>1716.062</ele>
        <time>2011-07-17T13:31:09Z</time>
      </trkpt>
      <trkpt lat="42.8367" lon="-0.13828">
        <ele>1715.19</ele>
        <time>2011-07-17T13:31:13Z</time>
      </trkpt>
      <trkpt lat="42.83689" lon="-0.1383">
        <ele>1715.012</ele>
        <time>2011-07-17T13:31:26Z</time>
      </trkpt>
      <trkpt lat="42.83699" lon="-0.1383">
        <ele>1714.256</ele>
        <time>2011-07-17T13:31:33Z</time>
      </trkpt>
      <trkpt lat="42.83719" lon="-0.13831">
        <ele>1711.824</ele>
        <time>2011-07-17T13:31:47Z</time>
      </trkpt>
      <trkpt lat="42.83744" lon="-0.13827">
        <ele>1710.007</ele>
        <time>2011-07-17T13:32:03Z</time>
      </trkpt>
      <trkpt lat="42.83759" lon="-0.13823">
        <ele>1708.6</ele>
        <time>2011-07-17T13:32:15Z</time>
      </trkpt>
      <trkpt lat="42.83773" lon="-0.13824">
        <ele>1706.943</ele>
        <time>2011-07-17T13:32:27Z</time>
      </trkpt>
      <trkpt lat="42.8378" lon="-0.13826">
        <ele>1705.822</ele>
        <time>2011-07-17T13:32:32Z</time>
      </trkpt>
      <trkpt lat="42.83785" lon="-0.1383">
        <ele>1704.774</ele>
        <time>2011-07-17T13:32:36Z</time>
      </trkpt>
      <trkpt lat="42.83797" lon="-0.13838">
        <ele>1702.6</ele>
        <time>2011-07-17T13:32:46Z</time>
      </trkpt>
      <trkpt lat="42.83808" lon="-0.13844">
        <ele>1702.216</ele>
        <time>2011-07-17T13:32:55Z</time>
      </trkpt>
      <trkpt lat="42.83832" lon="-0.13857">
        <ele>1700.883</ele>
        <time>2011-07-17T13:33:14Z</time>
      </trkpt>
      <trkpt lat="42.83842" lon="-0.13862">
        <ele>1699.7</ele>
        <time>2011-07-17T13:33:23Z</time>
      </trkpt>
      <trkpt lat="42.83853" lon="-0.13869">
        <ele>1697.882</ele>
        <time>2011-07-17T13:33:33Z</time>
      </trkpt>
      <trkpt lat="42.83867" lon="-0.13869">
        <ele>1695.667</ele>
        <time>2011-07-17T13:33:41Z</time>
      </trkpt>
      <trkpt lat="42.83871" lon="-0.13869">
        <ele>1695.63</ele>
        <time>2011-07-17T13:33:43Z</time>
      </trkpt>
      <trkpt lat="42.83885" lon="-0.13875">
        <ele>1693.317</ele>
        <time>2011-07-17T13:33:55Z</time>
      </trkpt>
      <trkpt lat="42.83904" lon="-0.13876">
        <ele>1691.556</ele>
        <time>2011-07-17T13:34:08Z</time>
      </trkpt>
      <trkpt lat="42.83913" lon="-0.13877">
        <ele>1690.881</ele>
        <time>2011-07-17T13:34:14Z</time>
      </trkpt>
      <trkpt lat="42.83925" lon="-0.13874">
        <ele>1691.628</ele>
        <time>2011-07-17T13:34:24Z</time>
      </trkpt>
      <trkpt lat="42.83937" lon="-0.13864">
        <ele>1692.64</ele>
        <time>2011-07-17T13:34:36Z</time>
      </trkpt>
      <trkpt lat="42.83946" lon="-0.13861">
        <ele>1692.358</ele>
        <time>2011-07-17T13:34:42Z</time>
      </trkpt>
      <trkpt lat="42.83949" lon="-0.13859">
        <ele>1692.257</ele>
        <time>2011-07-17T13:34:45Z</time>
      </trkpt>
      <trkpt lat="42.83961" lon="-0.1386">
        <ele>1690.202</ele>
        <time>2011-07-17T13:34:53Z</time>
      </trkpt>
      <trkpt lat="42.83978" lon="-0.13856">
        <ele>1688.339</ele>
        <time>2011-07-17T13:35:07Z</time>
      </trkpt>
      <trkpt lat="42.83988" lon="-0.13856">
        <ele>1687.555</ele>
        <time>2011-07-17T13:35:14Z</time>
      </trkpt>
      <trkpt lat="42.84012" lon="-0.13846">
        <ele>1685.16</ele>
        <time>2011-07-17T13:35:32Z</time>
      </trkpt>
      <trkpt lat="42.84015" lon="-0.13843">
        <ele>1685.943</ele>
        <time>2011-07-17T13:35:35Z</time>
      </trkpt>
      <trkpt lat="42.84029" lon="-0.13838">
        <ele>1687.479</ele>
        <time>2011-07-17T13:35:47Z</time>
      </trkpt>
      <trkpt lat="42.84032" lon="-0.13835">
        <ele>1688.246</ele>
        <time>2011-07-17T13:35:51Z</time>
      </trkpt>
      <trkpt lat="42.84048" lon="-0.13831">
        <ele>1691.303</ele>
        <time>2011-07-17T13:36:06Z</time>
      </trkpt>
      <trkpt lat="42.8405" lon="-0.13833">
        <ele>1691.713</ele>
        <time>2011-07-17T13:36:08Z</time>
      </trkpt>
      <trkpt lat="42.84054" lon="-0.13831">
        <ele>1692.408</ele>
        <time>2011-07-17T13:36:11Z</time>
      </trkpt>
      <trkpt lat="42.84066" lon="-0.13833">
        <ele>1693.869</ele>
        <time>2011-07-17T13:36:22Z</time>
      </trkpt>
      <trkpt lat="42.84082" lon="-0.13837">
        <ele>1696.815</ele>
        <time>2011-07-17T13:36:36Z</time>
      </trkpt>
      <trkpt lat="42.84087" lon="-0.13837">
        <ele>1697.291</ele>
        <time>2011-07-17T13:36:41Z</time>
      </trkpt>
      <trkpt lat="42.84098" lon="-0.13848">
        <ele>1696.322</ele>
        <time>2011-07-17T13:38:03Z</time>
      </trkpt>
      <trkpt lat="42.84102" lon="-0.13847">
        <ele>1695.737</ele>
        <time>2011-07-17T13:38:24Z</time>
      </trkpt>
      <trkpt lat="42.84112" lon="-0.13855">
        <ele>1692.628</ele>
        <time>2011-07-17T13:38:37Z</time>
      </trkpt>
      <trkpt lat="42.84119" lon="-0.1386">
        <ele>1690.048</ele>
        <time>2011-07-17T13:38:46Z</time>
      </trkpt>
      <trkpt lat="42.84119" lon="-0.13866">
        <ele>1688.259</ele>
        <time>2011-07-17T13:38:51Z</time>
      </trkpt>
      <trkpt lat="42.84126" lon="-0.13875">
        <ele>1685.987</ele>
        <time>2011-07-17T13:38:59Z</time>
      </trkpt>
      <trkpt lat="42.84128" lon="-0.13879">
        <ele>1684.623</ele>
        <time>2011-07-17T13:39:03Z</time>
      </trkpt>
      <trkpt lat="42.8413" lon="-0.13884">
        <ele>1682.863</ele>
        <time>2011-07-17T13:39:07Z</time>
      </trkpt>
      <trkpt lat="42.84141" lon="-0.13888">
        <ele>1679.67</ele>
        <time>2011-07-17T13:39:20Z</time>
      </trkpt>
      <trkpt lat="42.84161" lon="-0.13889">
        <ele>1677.361</ele>
        <time>2011-07-17T13:39:32Z</time>
      </trkpt>
      <trkpt lat="42.84169" lon="-0.13892">
        <ele>1677.702</ele>
        <time>2011-07-17T13:39:41Z</time>
      </trkpt>
      <trkpt lat="42.84173" lon="-0.13895">
        <ele>1677.612</ele>
        <time>2011-07-17T13:39:43Z</time>
      </trkpt>
      <trkpt lat="42.84175" lon="-0.13903">
        <ele>1677.786</ele>
        <time>2011-07-17T13:39:47Z</time>
      </trkpt>
      <trkpt lat="42.84177" lon="-0.13901">
        <ele>1677.361</ele>
        <time>2011-07-17T13:39:51Z</time>
      </trkpt>
      <trkpt lat="42.84192" lon="-0.13901">
        <ele>1677.39</ele>
        <time>2011-07-17T13:40:01Z</time>
      </trkpt>
      <trkpt lat="42.842" lon="-0.13908">
        <ele>1676.46</ele>
        <time>2011-07-17T13:40:07Z</time>
      </trkpt>
      <trkpt lat="42.84211" lon="-0.13907">
        <ele>1675.81</ele>
        <time>2011-07-17T13:40:19Z</time>
      </trkpt>
      <trkpt lat="42.84213" lon="-0.13904">
        <ele>1674.484</ele>
        <time>2011-07-17T13:40:22Z</time>
      </trkpt>
      <trkpt lat="42.84216" lon="-0.13904">
        <ele>1674.838</ele>
        <time>2011-07-17T13:40:24Z</time>
      </trkpt>
      <trkpt lat="42.84227" lon="-0.13909">
        <ele>1674.23</ele>
        <time>2011-07-17T13:40:33Z</time>
      </trkpt>
      <trkpt lat="42.84232" lon="-0.13915">
        <ele>1673.12</ele>
        <time>2011-07-17T13:40:38Z</time>
      </trkpt>
      <trkpt lat="42.84237" lon="-0.13914">
        <ele>1672.684</ele>
        <time>2011-07-17T13:40:42Z</time>
      </trkpt>
      <trkpt lat="42.84245" lon="-0.13912">
        <ele>1672.861</ele>
        <time>2011-07-17T13:40:47Z</time>
      </trkpt>
      <trkpt lat="42.8425" lon="-0.13912">
        <ele>1673.902</ele>
        <time>2011-07-17T13:40:51Z</time>
      </trkpt>
      <trkpt lat="42.84254" lon="-0.13898">
        <ele>1673.535</ele>
        <time>2011-07-17T13:40:58Z</time>
      </trkpt>
      <trkpt lat="42.84252" lon="-0.13887">
        <ele>1672.975</ele>
        <time>2011-07-17T13:41:03Z</time>
      </trkpt>
      <trkpt lat="42.84256" lon="-0.13882">
        <ele>1672.251</ele>
        <time>2011-07-17T13:41:07Z</time>
      </trkpt>
      <trkpt lat="42.84264" lon="-0.1388">
        <ele>1671.469</ele>
        <time>2011-07-17T13:41:13Z</time>
      </trkpt>
      <trkpt lat="42.84268" lon="-0.13877">
        <ele>1671.749</ele>
        <time>2011-07-17T13:41:16Z</time>
      </trkpt>
      <trkpt lat="42.84272" lon="-0.13873">
        <ele>1671.463</ele>
        <time>2011-07-17T13:41:20Z</time>
      </trkpt>
      <trkpt lat="42.8428" lon="-0.13875">
        <ele>1670.417</ele>
        <time>2011-07-17T13:41:27Z</time>
      </trkpt>
      <trkpt lat="42.84299" lon="-0.13876">
        <ele>1666.657</ele>
        <time>2011-07-17T13:41:40Z</time>
      </trkpt>
      <trkpt lat="42.84302" lon="-0.13878">
        <ele>1666.332</ele>
        <time>2011-07-17T13:41:42Z</time>
      </trkpt>
      <trkpt lat="42.84319" lon="-0.13878">
        <ele>1666.197</ele>
        <time>2011-07-17T13:41:56Z</time>
      </trkpt>
      <trkpt lat="42.84322" lon="-0.13879">
        <ele>1666.337</ele>
        <time>2011-07-17T13:41:59Z</time>
      </trkpt>
      <trkpt lat="42.84326" lon="-0.13882">
        <ele>1666.29</ele>
        <time>2011-07-17T13:42:04Z</time>
      </trkpt>
      <trkpt lat="42.84333" lon="-0.13884">
        <ele>1665.486</ele>
        <time>2011-07-17T13:42:09Z</time>
      </trkpt>
      <trkpt lat="42.84349" lon="-0.13883">
        <ele>1665.069</ele>
        <time>2011-07-17T13:42:20Z</time>
      </trkpt>
      <trkpt lat="42.84351" lon="-0.13879">
        <ele>1664.146</ele>
        <time>2011-07-17T13:43:27Z</time>
      </trkpt>
      <trkpt lat="42.84353" lon="-0.13877">
        <ele>1663.436</ele>
        <time>2011-07-17T13:43:53Z</time>
      </trkpt>
      <trkpt lat="42.84365" lon="-0.13876">
        <ele>1664.422</ele>
        <time>2011-07-17T13:44:03Z</time>
      </trkpt>
      <trkpt lat="42.8437" lon="-0.13874">
        <ele>1663.883</ele>
        <time>2011-07-17T13:44:07Z</time>
      </trkpt>
      <trkpt lat="42.84386" lon="-0.13871">
        <ele>1661.736</ele>
        <time>2011-07-17T13:44:20Z</time>
      </trkpt>
      <trkpt lat="42.84389" lon="-0.13871">
        <ele>1660.852</ele>
        <time>2011-07-17T13:44:22Z</time>
      </trkpt>
      <trkpt lat="42.84406" lon="-0.13868">
        <ele>1659.387</ele>
        <time>2011-07-17T13:44:36Z</time>
      </trkpt>
      <trkpt lat="42.8442" lon="-0.13864">
        <ele>1657.32</ele>
        <time>2011-07-17T13:44:47Z</time>
      </trkpt>
      <trkpt lat="42.84435" lon="-0.13868">
        <ele>1655.239</ele>
        <time>2011-07-17T13:44:59Z</time>
      </trkpt>
      <trkpt lat="42.84441" lon="-0.13868">
        <ele>1654.097</ele>
        <time>2011-07-17T13:45:03Z</time>
      </trkpt>
      <trkpt lat="42.84447" lon="-0.1387">
        <ele>1653.473</ele>
        <time>2011-07-17T13:45:07Z</time>
      </trkpt>
      <trkpt lat="42.84454" lon="-0.13867">
        <ele>1652.543</ele>
        <time>2011-07-17T13:45:13Z</time>
      </trkpt>
      <trkpt lat="42.84462" lon="-0.13871">
        <ele>1651.372</ele>
        <time>2011-07-17T13:45:21Z</time>
      </trkpt>
      <trkpt lat="42.84464" lon="-0.13872">
        <ele>1650.561</ele>
        <time>2011-07-17T13:45:23Z</time>
      </trkpt>
      <trkpt lat="42.84467" lon="-0.13873">
        <ele>1649.71</ele>
        <time>2011-07-17T13:45:26Z</time>
      </trkpt>
      <trkpt lat="42.84479" lon="-0.13879">
        <ele>1646.447</ele>
        <time>2011-07-17T13:45:38Z</time>
      </trkpt>
      <trkpt lat="42.84483" lon="-0.1388">
        <ele>1645.895</ele>
        <time>2011-07-17T13:45:40Z</time>
      </trkpt>
      <trkpt lat="42.84491" lon="-0.13879">
        <ele>1644.46</ele>
        <time>2011-07-17T13:45:47Z</time>
      </trkpt>
      <trkpt lat="42.84505" lon="-0.13886">
        <ele>1642.367</ele>
        <time>2011-07-17T13:46:01Z</time>
      </trkpt>
      <trkpt lat="42.84512" lon="-0.13886">
        <ele>1641.828</ele>
        <time>2011-07-17T13:46:27Z</time>
      </trkpt>
      <trkpt lat="42.84513" lon="-0.13888">
        <ele>1641.857</ele>
        <time>2011-07-17T13:46:45Z</time>
      </trkpt>
      <trkpt lat="42.84516" lon="-0.13889">
        <ele>1641.963</ele>
        <time>2011-07-17T13:47:03Z</time>
      </trkpt>
      <trkpt lat="42.84515" lon="-0.13886">
        <ele>1641.852</ele>
        <time>2011-07-17T13:47:05Z</time>
      </trkpt>
      <trkpt lat="42.84536" lon="-0.13878">
        <ele>1640.267</ele>
        <time>2011-07-17T13:47:23Z</time>
      </trkpt>
      <trkpt lat="42.84542" lon="-0.13874">
        <ele>1639.794</ele>
        <time>2011-07-17T13:47:28Z</time>
      </trkpt>
      <trkpt lat="42.84551" lon="-0.13877">
        <ele>1639.741</ele>
        <time>2011-07-17T13:47:34Z</time>
      </trkpt>
      <trkpt lat="42.84558" lon="-0.13877">
        <ele>1640.441</ele>
        <time>2011-07-17T13:47:39Z</time>
      </trkpt>
      <trkpt lat="42.84565" lon="-0.13869">
        <ele>1640.158</ele>
        <time>2011-07-17T13:47:46Z</time>
      </trkpt>
      <trkpt lat="42.84566" lon="-0.13873">
        <ele>1640.65</ele>
        <time>2011-07-17T13:47:48Z</time>
      </trkpt>
      <trkpt lat="42.84572" lon="-0.13872">
        <ele>1640.734</ele>
        <time>2011-07-17T13:47:52Z</time>
      </trkpt>
      <trkpt lat="42.84578" lon="-0.13868">
        <ele>1640.52</ele>
        <time>2011-07-17T13:47:57Z</time>
      </trkpt>
      <trkpt lat="42.84587" lon="-0.13863">
        <ele>1639.44</ele>
        <time>2011-07-17T13:48:04Z</time>
      </trkpt>
      <trkpt lat="42.84591" lon="-0.13857">
        <ele>1637.376</ele>
        <time>2011-07-17T13:48:13Z</time>
      </trkpt>
      <trkpt lat="42.84593" lon="-0.13857">
        <ele>1636.198</ele>
        <time>2011-07-17T13:48:17Z</time>
      </trkpt>
      <trkpt lat="42.84594" lon="-0.13859">
        <ele>1635.085</ele>
        <time>2011-07-17T13:48:20Z</time>
      </trkpt>
      <trkpt lat="42.84599" lon="-0.13856">
        <ele>1634.237</ele>
        <time>2011-07-17T13:48:24Z</time>
      </trkpt>
      <trkpt lat="42.84601" lon="-0.13851">
        <ele>1632.712</ele>
        <time>2011-07-17T13:48:30Z</time>
      </trkpt>
      <trkpt lat="42.84602" lon="-0.13859">
        <ele>1631.04</ele>
        <time>2011-07-17T13:48:37Z</time>
      </trkpt>
      <trkpt lat="42.84608" lon="-0.13867">
        <ele>1629.505</ele>
        <time>2011-07-17T13:48:48Z</time>
      </trkpt>
      <trkpt lat="42.84612" lon="-0.13863">
        <ele>1627.85</ele>
        <time>2011-07-17T13:49:17Z</time>
      </trkpt>
      <trkpt lat="42.8462" lon="-0.13859">
        <ele>1627.317</ele>
        <time>2011-07-17T13:49:24Z</time>
      </trkpt>
      <trkpt lat="42.84638" lon="-0.13866">
        <ele>1627.636</ele>
        <time>2011-07-17T13:49:42Z</time>
      </trkpt>
      <trkpt lat="42.8465" lon="-0.13867">
        <ele>1625.988</ele>
        <time>2011-07-17T13:49:51Z</time>
      </trkpt>
      <trkpt lat="42.84662" lon="-0.13866">
        <ele>1623.255</ele>
        <time>2011-07-17T13:50:00Z</time>
      </trkpt>
      <trkpt lat="42.84663" lon="-0.13865">
        <ele>1622.407</ele>
        <time>2011-07-17T13:50:03Z</time>
      </trkpt>
      <trkpt lat="42.84666" lon="-0.13864">
        <ele>1621.747</ele>
        <time>2011-07-17T13:50:06Z</time>
      </trkpt>
      <trkpt lat="42.84669" lon="-0.1385">
        <ele>1617.889</ele>
        <time>2011-07-17T13:50:18Z</time>
      </trkpt>
      <trkpt lat="42.84678" lon="-0.13842">
        <ele>1615.529</ele>
        <time>2011-07-17T13:50:28Z</time>
      </trkpt>
      <trkpt lat="42.84679" lon="-0.13837">
        <ele>1614.269</ele>
        <time>2011-07-17T13:50:31Z</time>
      </trkpt>
      <trkpt lat="42.84681" lon="-0.13837">
        <ele>1613.54</ele>
        <time>2011-07-17T13:50:35Z</time>
      </trkpt>
      <trkpt lat="42.8468" lon="-0.13841">
        <ele>1612.39</ele>
        <time>2011-07-17T13:50:39Z</time>
      </trkpt>
      <trkpt lat="42.84682" lon="-0.13843">
        <ele>1611.661</ele>
        <time>2011-07-17T13:50:42Z</time>
      </trkpt>
      <trkpt lat="42.8469" lon="-0.13839">
        <ele>1608.863</ele>
        <time>2011-07-17T13:50:50Z</time>
      </trkpt>
      <trkpt lat="42.84694" lon="-0.13837">
        <ele>1607.372</ele>
        <time>2011-07-17T13:50:54Z</time>
      </trkpt>
      <trkpt lat="42.84697" lon="-0.13839">
        <ele>1605.589</ele>
        <time>2011-07-17T13:51:00Z</time>
      </trkpt>
      <trkpt lat="42.84699" lon="-0.13846">
        <ele>1605.026</ele>
        <time>2011-07-17T13:51:04Z</time>
      </trkpt>
      <trkpt lat="42.84701" lon="-0.13849">
        <ele>1603.967</ele>
        <time>2011-07-17T13:51:06Z</time>
      </trkpt>
      <trkpt lat="42.84704" lon="-0.1385">
        <ele>1603.472</ele>
        <time>2011-07-17T13:51:08Z</time>
      </trkpt>
      <trkpt lat="42.84707" lon="-0.13849">
        <ele>1603.073</ele>
        <time>2011-07-17T13:51:10Z</time>
      </trkpt>
      <trkpt lat="42.84723" lon="-0.13847">
        <ele>1601.425</ele>
        <time>2011-07-17T13:51:21Z</time>
      </trkpt>
      <trkpt lat="42.84726" lon="-0.13843">
        <ele>1601.044</ele>
        <time>2011-07-17T13:51:23Z</time>
      </trkpt>
      <trkpt lat="42.84732" lon="-0.1384">
        <ele>1600.944</ele>
        <time>2011-07-17T13:51:28Z</time>
      </trkpt>
      <trkpt lat="42.84735" lon="-0.1384">
        <ele>1600.732</ele>
        <time>2011-07-17T13:51:30Z</time>
      </trkpt>
      <trkpt lat="42.84739" lon="-0.13843">
        <ele>1601.192</ele>
        <time>2011-07-17T13:51:34Z</time>
      </trkpt>
      <trkpt lat="42.84745" lon="-0.13838">
        <ele>1600.782</ele>
        <time>2011-07-17T13:51:42Z</time>
      </trkpt>
      <trkpt lat="42.84747" lon="-0.13832">
        <ele>1599.887</ele>
        <time>2011-07-17T13:51:48Z</time>
      </trkpt>
      <trkpt lat="42.84755" lon="-0.1383">
        <ele>1599.118</ele>
        <time>2011-07-17T13:51:53Z</time>
      </trkpt>
      <trkpt lat="42.84767" lon="-0.13835">
        <ele>1598.439</ele>
        <time>2011-07-17T13:52:02Z</time>
      </trkpt>
      <trkpt lat="42.84786" lon="-0.1384">
        <ele>1596.14</ele>
        <time>2011-07-17T13:52:16Z</time>
      </trkpt>
      <trkpt lat="42.84789" lon="-0.13839">
        <ele>1595.535</ele>
        <time>2011-07-17T13:52:19Z</time>
      </trkpt>
      <trkpt lat="42.84808" lon="-0.13838">
        <ele>1593.059</ele>
        <time>2011-07-17T13:52:32Z</time>
      </trkpt>
      <trkpt lat="42.84811" lon="-0.13836">
        <ele>1592.264</ele>
        <time>2011-07-17T13:52:36Z</time>
      </trkpt>
      <trkpt lat="42.84822" lon="-0.13839">
        <ele>1589.325</ele>
        <time>2011-07-17T13:52:49Z</time>
      </trkpt>
      <trkpt lat="42.84827" lon="-0.1384">
        <ele>1588.332</ele>
        <time>2011-07-17T13:52:53Z</time>
      </trkpt>
      <trkpt lat="42.84833" lon="-0.13844">
        <ele>1586.482</ele>
        <time>2011-07-17T13:52:59Z</time>
      </trkpt>
      <trkpt lat="42.84835" lon="-0.13844">
        <ele>1585.822</ele>
        <time>2011-07-17T13:53:01Z</time>
      </trkpt>
      <trkpt lat="42.84842" lon="-0.13852">
        <ele>1583.021</ele>
        <time>2011-07-17T13:53:14Z</time>
      </trkpt>
      <trkpt lat="42.84845" lon="-0.13853">
        <ele>1582.321</ele>
        <time>2011-07-17T13:53:17Z</time>
      </trkpt>
      <trkpt lat="42.84857" lon="-0.13852">
        <ele>1579.734</ele>
        <time>2011-07-17T13:53:29Z</time>
      </trkpt>
      <trkpt lat="42.84861" lon="-0.13853">
        <ele>1579.388</ele>
        <time>2011-07-17T13:53:30Z</time>
      </trkpt>
      <trkpt lat="42.84868" lon="-0.13859">
        <ele>1578.151</ele>
        <time>2011-07-17T13:53:35Z</time>
      </trkpt>
      <trkpt lat="42.8487" lon="-0.1386">
        <ele>1577.594</ele>
        <time>2011-07-17T13:53:37Z</time>
      </trkpt>
      <trkpt lat="42.84883" lon="-0.13864">
        <ele>1570.52</ele>
        <time>2011-07-17T13:54:02Z</time>
      </trkpt>
      <trkpt lat="42.84893" lon="-0.13866">
        <ele>1567.365</ele>
        <time>2011-07-17T13:54:11Z</time>
      </trkpt>
      <trkpt lat="42.84906" lon="-0.13876">
        <ele>1565.431</ele>
        <time>2011-07-17T13:54:21Z</time>
      </trkpt>
      <trkpt lat="42.84904" lon="-0.13872">
        <ele>1564.215</ele>
        <time>2011-07-17T13:54:26Z</time>
      </trkpt>
      <trkpt lat="42.8491" lon="-0.13863">
        <ele>1560.936</ele>
        <time>2011-07-17T13:54:37Z</time>
      </trkpt>
      <trkpt lat="42.84914" lon="-0.13863">
        <ele>1559.694</ele>
        <time>2011-07-17T13:54:41Z</time>
      </trkpt>
      <trkpt lat="42.84923" lon="-0.1386">
        <ele>1557.744</ele>
        <time>2011-07-17T13:54:48Z</time>
      </trkpt>
      <trkpt lat="42.84926" lon="-0.13856">
        <ele>1556.709</ele>
        <time>2011-07-17T13:54:52Z</time>
      </trkpt>
      <trkpt lat="42.84926" lon="-0.13852">
        <ele>1555.369</ele>
        <time>2011-07-17T13:54:55Z</time>
      </trkpt>
      <trkpt lat="42.84926" lon="-0.13849">
        <ele>1554.656</ele>
        <time>2011-07-17T13:54:58Z</time>
      </trkpt>
      <trkpt lat="42.84929" lon="-0.13847">
        <ele>1553.218</ele>
        <time>2011-07-17T13:55:01Z</time>
      </trkpt>
      <trkpt lat="42.8494" lon="-0.13841">
        <ele>1551.437</ele>
        <time>2011-07-17T13:55:07Z</time>
      </trkpt>
      <trkpt lat="42.84946" lon="-0.13839">
        <ele>1549.659</ele>
        <time>2011-07-17T13:55:12Z</time>
      </trkpt>
      <trkpt lat="42.84951" lon="-0.13839">
        <ele>1549.02</ele>
        <time>2011-07-17T13:55:15Z</time>
      </trkpt>
      <trkpt lat="42.84959" lon="-0.13841">
        <ele>1547.405</ele>
        <time>2011-07-17T13:55:23Z</time>
      </trkpt>
      <trkpt lat="42.84967" lon="-0.1384">
        <ele>1544.998</ele>
        <time>2011-07-17T13:55:31Z</time>
      </trkpt>
      <trkpt lat="42.84973" lon="-0.13844">
        <ele>1543.431</ele>
        <time>2011-07-17T13:55:37Z</time>
      </trkpt>
      <trkpt lat="42.84977" lon="-0.13837">
        <ele>1542.276</ele>
        <time>2011-07-17T13:55:42Z</time>
      </trkpt>
      <trkpt lat="42.84978" lon="-0.13834">
        <ele>1541.404</ele>
        <time>2011-07-17T13:55:45Z</time>
      </trkpt>
      <trkpt lat="42.84983" lon="-0.13828">
        <ele>1538.91</ele>
        <time>2011-07-17T13:55:53Z</time>
      </trkpt>
      <trkpt lat="42.84987" lon="-0.13828">
        <ele>1537.808</ele>
        <time>2011-07-17T13:55:56Z</time>
      </trkpt>
      <trkpt lat="42.84993" lon="-0.13825">
        <ele>1536.376</ele>
        <time>2011-07-17T13:56:02Z</time>
      </trkpt>
      <trkpt lat="42.84995" lon="-0.13827">
        <ele>1536.072</ele>
        <time>2011-07-17T13:56:04Z</time>
      </trkpt>
      <trkpt lat="42.85004" lon="-0.13844">
        <ele>1531.731</ele>
        <time>2011-07-17T13:56:17Z</time>
      </trkpt>
      <trkpt lat="42.85005" lon="-0.13847">
        <ele>1531.525</ele>
        <time>2011-07-17T13:56:19Z</time>
      </trkpt>
      <trkpt lat="42.85005" lon="-0.13853">
        <ele>1530.679</ele>
        <time>2011-07-17T13:56:24Z</time>
      </trkpt>
      <trkpt lat="42.85003" lon="-0.13861">
        <ele>1529.194</ele>
        <time>2011-07-17T13:56:29Z</time>
      </trkpt>
      <trkpt lat="42.85002" lon="-0.13868">
        <ele>1528.304</ele>
        <time>2011-07-17T13:56:34Z</time>
      </trkpt>
      <trkpt lat="42.85004" lon="-0.13873">
        <ele>1527.123</ele>
        <time>2011-07-17T13:56:38Z</time>
      </trkpt>
      <trkpt lat="42.85006" lon="-0.13874">
        <ele>1526.647</ele>
        <time>2011-07-17T13:56:40Z</time>
      </trkpt>
      <trkpt lat="42.85012" lon="-0.13865">
        <ele>1525.281</ele>
        <time>2011-07-17T13:56:48Z</time>
      </trkpt>
      <trkpt lat="42.85015" lon="-0.1386">
        <ele>1524.834</ele>
        <time>2011-07-17T13:56:51Z</time>
      </trkpt>
      <trkpt lat="42.85021" lon="-0.13855">
        <ele>1524.002</ele>
        <time>2011-07-17T13:56:55Z</time>
      </trkpt>
      <trkpt lat="42.85023" lon="-0.13849">
        <ele>1522.306</ele>
        <time>2011-07-17T13:56:59Z</time>
      </trkpt>
      <trkpt lat="42.85026" lon="-0.13841">
        <ele>1521.635</ele>
        <time>2011-07-17T13:57:04Z</time>
      </trkpt>
      <trkpt lat="42.85026" lon="-0.13831">
        <ele>1520.556</ele>
        <time>2011-07-17T13:57:09Z</time>
      </trkpt>
      <trkpt lat="42.85028" lon="-0.13827">
        <ele>1520.031</ele>
        <time>2011-07-17T13:57:12Z</time>
      </trkpt>
      <trkpt lat="42.85028" lon="-0.13825">
        <ele>1518.39</ele>
        <time>2011-07-17T13:57:19Z</time>
      </trkpt>
      <trkpt lat="42.85029" lon="-0.13833">
        <ele>1517.742</ele>
        <time>2011-07-17T13:57:23Z</time>
      </trkpt>
      <trkpt lat="42.85033" lon="-0.13844">
        <ele>1517.116</ele>
        <time>2011-07-17T13:57:29Z</time>
      </trkpt>
      <trkpt lat="42.85033" lon="-0.13856">
        <ele>1515.544</ele>
        <time>2011-07-17T13:57:39Z</time>
      </trkpt>
      <trkpt lat="42.85031" lon="-0.13867">
        <ele>1514.45</ele>
        <time>2011-07-17T13:57:44Z</time>
      </trkpt>
      <trkpt lat="42.85031" lon="-0.13887">
        <ele>1511.834</ele>
        <time>2011-07-17T13:57:55Z</time>
      </trkpt>
      <trkpt lat="42.8503" lon="-0.13905">
        <ele>1510.397</ele>
        <time>2011-07-17T13:58:08Z</time>
      </trkpt>
      <trkpt lat="42.85033" lon="-0.13911">
        <ele>1509.2</ele>
        <time>2011-07-17T13:58:13Z</time>
      </trkpt>
      <trkpt lat="42.85037" lon="-0.13907">
        <ele>1507.07</ele>
        <time>2011-07-17T13:58:22Z</time>
      </trkpt>
      <trkpt lat="42.85039" lon="-0.13898">
        <ele>1505.995</ele>
        <time>2011-07-17T13:58:30Z</time>
      </trkpt>
      <trkpt lat="42.85043" lon="-0.13895">
        <ele>1505.3</ele>
        <time>2011-07-17T13:58:33Z</time>
      </trkpt>
      <trkpt lat="42.85049" lon="-0.13887">
        <ele>1502.932</ele>
        <time>2011-07-17T13:58:44Z</time>
      </trkpt>
      <trkpt lat="42.8505" lon="-0.13884">
        <ele>1501.91</ele>
        <time>2011-07-17T13:58:47Z</time>
      </trkpt>
      <trkpt lat="42.85051" lon="-0.13882">
        <ele>1501.193</ele>
        <time>2011-07-17T13:58:50Z</time>
      </trkpt>
      <trkpt lat="42.85055" lon="-0.13878">
        <ele>1500.102</ele>
        <time>2011-07-17T13:58:56Z</time>
      </trkpt>
      <trkpt lat="42.85054" lon="-0.13893">
        <ele>1496.934</ele>
        <time>2011-07-17T13:59:10Z</time>
      </trkpt>
      <trkpt lat="42.85053" lon="-0.13895">
        <ele>1496.424</ele>
        <time>2011-07-17T13:59:12Z</time>
      </trkpt>
      <trkpt lat="42.85051" lon="-0.13899">
        <ele>1495.478</ele>
        <time>2011-07-17T13:59:15Z</time>
      </trkpt>
      <trkpt lat="42.85055" lon="-0.13896">
        <ele>1494.141</ele>
        <time>2011-07-17T13:59:24Z</time>
      </trkpt>
      <trkpt lat="42.85056" lon="-0.13889">
        <ele>1493.132</ele>
        <time>2011-07-17T13:59:28Z</time>
      </trkpt>
      <trkpt lat="42.85062" lon="-0.13868">
        <ele>1489.028</ele>
        <time>2011-07-17T13:59:40Z</time>
      </trkpt>
      <trkpt lat="42.85067" lon="-0.13868">
        <ele>1488.354</ele>
        <time>2011-07-17T13:59:43Z</time>
      </trkpt>
      <trkpt lat="42.85072" lon="-0.13873">
        <ele>1486.806</ele>
        <time>2011-07-17T13:59:47Z</time>
      </trkpt>
      <trkpt lat="42.85073" lon="-0.13875">
        <ele>1486.634</ele>
        <time>2011-07-17T13:59:48Z</time>
      </trkpt>
      <trkpt lat="42.85077" lon="-0.1388">
        <ele>1486.433</ele>
        <time>2011-07-17T13:59:52Z</time>
      </trkpt>
      <trkpt lat="42.85082" lon="-0.1388">
        <ele>1485.152</ele>
        <time>2011-07-17T13:59:56Z</time>
      </trkpt>
      <trkpt lat="42.85082" lon="-0.13879">
        <ele>1485.062</ele>
        <time>2011-07-17T13:59:57Z</time>
      </trkpt>
      <trkpt lat="42.85087" lon="-0.13868">
        <ele>1483.947</ele>
        <time>2011-07-17T14:00:05Z</time>
      </trkpt>
      <trkpt lat="42.8509" lon="-0.13864">
        <ele>1483.368</ele>
        <time>2011-07-17T14:00:08Z</time>
      </trkpt>
      <trkpt lat="42.85095" lon="-0.13867">
        <ele>1482.681</ele>
        <time>2011-07-17T14:00:13Z</time>
      </trkpt>
      <trkpt lat="42.85098" lon="-0.13872">
        <ele>1481.299</ele>
        <time>2011-07-17T14:00:17Z</time>
      </trkpt>
      <trkpt lat="42.85101" lon="-0.13876">
        <ele>1480.504</ele>
        <time>2011-07-17T14:00:20Z</time>
      </trkpt>
      <trkpt lat="42.85103" lon="-0.13886">
        <ele>1479.024</ele>
        <time>2011-07-17T14:00:26Z</time>
      </trkpt>
      <trkpt lat="42.85111" lon="-0.1389">
        <ele>1476.974</ele>
        <time>2011-07-17T14:00:35Z</time>
      </trkpt>
      <trkpt lat="42.85113" lon="-0.13887">
        <ele>1476.633</ele>
        <time>2011-07-17T14:00:37Z</time>
      </trkpt>
      <trkpt lat="42.85114" lon="-0.13882">
        <ele>1475.547</ele>
        <time>2011-07-17T14:00:41Z</time>
      </trkpt>
      <trkpt lat="42.85117" lon="-0.13873">
        <ele>1474.562</ele>
        <time>2011-07-17T14:00:46Z</time>
      </trkpt>
      <trkpt lat="42.8512" lon="-0.13871">
        <ele>1474.231</ele>
        <time>2011-07-17T14:00:48Z</time>
      </trkpt>
      <trkpt lat="42.85122" lon="-0.1386">
        <ele>1473.571</ele>
        <time>2011-07-17T14:00:54Z</time>
      </trkpt>
      <trkpt lat="42.85134" lon="-0.13849">
        <ele>1471.343</ele>
        <time>2011-07-17T14:01:06Z</time>
      </trkpt>
      <trkpt lat="42.85137" lon="-0.13844">
        <ele>1470.802</ele>
        <time>2011-07-17T14:01:10Z</time>
      </trkpt>
      <trkpt lat="42.8514" lon="-0.13809">
        <ele>1467.599</ele>
        <time>2011-07-17T14:01:27Z</time>
      </trkpt>
      <trkpt lat="42.85144" lon="-0.13767">
        <ele>1465.366</ele>
        <time>2011-07-17T14:01:49Z</time>
      </trkpt>
      <trkpt lat="42.85158" lon="-0.13729">
        <ele>1463.469</ele>
        <time>2011-07-17T14:02:13Z</time>
      </trkpt>
      <trkpt lat="42.85168" lon="-0.13699">
        <ele>1462.143</ele>
        <time>2011-07-17T14:02:31Z</time>
      </trkpt>
      <trkpt lat="42.85169" lon="-0.13692">
        <ele>1462.098</ele>
        <time>2011-07-17T14:02:35Z</time>
      </trkpt>
      <trkpt lat="42.85175" lon="-0.13686">
        <ele>1461.728</ele>
        <time>2011-07-17T14:02:43Z</time>
      </trkpt>
      <trkpt lat="42.85177" lon="-0.13646">
        <ele>1458.819</ele>
        <time>2011-07-17T14:03:03Z</time>
      </trkpt>
      <trkpt lat="42.85198" lon="-0.1359">
        <ele>1457.408</ele>
        <time>2011-07-17T14:03:35Z</time>
      </trkpt>
      <trkpt lat="42.8522" lon="-0.13534">
        <ele>1456.197</ele>
        <time>2011-07-17T14:04:05Z</time>
      </trkpt>
      <trkpt lat="42.85239" lon="-0.13486">
        <ele>1455.106</ele>
        <time>2011-07-17T14:04:33Z</time>
      </trkpt>
      <trkpt lat="42.85243" lon="-0.13446">
        <ele>1453.863</ele>
        <time>2011-07-17T14:04:54Z</time>
      </trkpt>
      <trkpt lat="42.85241" lon="-0.13406">
        <ele>1453.891</ele>
        <time>2011-07-17T14:05:15Z</time>
      </trkpt>
      <trkpt lat="42.85261" lon="-0.13399">
        <ele>1455.232</ele>
        <time>2011-07-17T14:09:06Z</time>
      </trkpt>
    </trkseg>
  </trk>
</gpx>